createdAt,value
2022-11-10T00:01:18.386Z,28.95
2022-11-10T00:03:44.802Z,29.85
2022-11-10T00:06:11.209Z,29.05
2022-11-10T00:08:37.557Z,27.95
2022-11-10T00:11:04.232Z,28.17
2022-11-10T00:13:30.540Z,28.00
2022-11-10T00:15:56.982Z,28.02
2022-11-10T00:18:23.310Z,26.77
2022-11-10T00:20:49.602Z,27.52
2022-11-10T00:23:16.025Z,26.45
2022-11-10T00:25:42.412Z,27.50
2022-11-10T00:28:08.762Z,26.63
2022-11-10T00:30:35.026Z,26.17
2022-11-10T00:33:01.504Z,25.92
2022-11-10T00:35:27.827Z,26.88
2022-11-10T00:37:54.189Z,25.83
2022-11-10T00:40:21.123Z,26.10
2022-11-10T00:42:47.467Z,26.45
2022-11-10T00:45:13.790Z,25.10
2022-11-10T00:47:40.192Z,25.13
2022-11-10T00:50:06.608Z,25.52
2022-11-10T00:52:33.066Z,25.17
2022-11-10T00:54:59.406Z,25.65
2022-11-10T00:57:25.717Z,25.80
2022-11-10T00:59:52.052Z,25.65
2022-11-10T01:02:18.416Z,24.52
2022-11-10T01:04:44.816Z,24.80
2022-11-10T01:07:11.236Z,25.05
2022-11-10T01:09:37.653Z,24.23
2022-11-10T01:12:03.971Z,22.02
2022-11-10T01:14:30.373Z,24.35
2022-11-10T01:16:56.891Z,23.05
2022-11-10T01:19:23.279Z,23.45
2022-11-10T01:21:49.629Z,23.13
2022-11-10T01:24:15.964Z,23.63
2022-11-10T01:26:42.295Z,21.90
2022-11-10T01:29:08.812Z,22.20
2022-11-10T01:31:35.148Z,22.95
2022-11-10T01:34:01.528Z,23.27
2022-11-10T01:36:28.026Z,21.60
2022-11-10T01:38:54.351Z,22.10
2022-11-10T01:41:20.793Z,21.50
2022-11-10T01:43:47.125Z,21.75
2022-11-10T01:46:13.435Z,21.85
2022-11-10T01:48:39.760Z,21.35
2022-11-10T01:51:06.075Z,20.15
2022-11-10T01:53:32.428Z,21.40
2022-11-10T01:55:58.767Z,21.15
2022-11-10T01:58:25.201Z,21.83
2022-11-10T02:00:51.544Z,20.52
2022-11-10T02:03:17.992Z,21.08
2022-11-10T02:05:44.546Z,21.33
2022-11-10T02:08:11.068Z,20.77
2022-11-10T02:10:38.864Z,19.98
2022-11-10T02:13:05.785Z,20.23
2022-11-10T02:15:32.162Z,19.88
2022-11-10T02:17:58.616Z,20.73
2022-11-10T02:20:25.158Z,19.63
2022-11-10T02:22:51.684Z,19.77
2022-11-10T02:25:18.025Z,18.25
2022-11-10T02:27:44.641Z,18.23
2022-11-10T02:30:11.014Z,19.35
2022-11-10T02:32:37.433Z,18.95
2022-11-10T02:35:03.817Z,18.48
2022-11-10T02:37:30.277Z,18.58
2022-11-10T02:39:56.630Z,17.90
2022-11-10T02:42:23.002Z,17.77
2022-11-10T02:44:49.366Z,18.10
2022-11-10T02:47:15.884Z,18.05
2022-11-10T02:49:42.361Z,16.52
2022-11-10T02:52:08.879Z,18.17
2022-11-10T02:54:35.234Z,17.65
2022-11-10T02:57:01.573Z,18.67
2022-11-10T02:59:28.217Z,16.83
2022-11-10T03:01:54.591Z,17.73
2022-11-10T03:04:20.955Z,16.38
2022-11-10T03:06:47.381Z,16.73
2022-11-10T03:09:13.835Z,16.15
2022-11-10T03:11:40.302Z,16.45
2022-11-10T03:14:06.694Z,17.13
2022-11-10T03:16:33.086Z,15.43
2022-11-10T03:19:00.142Z,15.98
2022-11-10T03:21:26.962Z,15.75
2022-11-10T03:23:53.477Z,16.13
2022-11-10T03:26:19.812Z,16.60
2022-11-10T03:28:46.458Z,15.00
2022-11-10T03:31:12.839Z,15.50
2022-11-10T03:33:39.323Z,15.98
2022-11-10T03:36:05.932Z,15.15
2022-11-10T03:38:32.411Z,15.68
2022-11-10T03:43:45.276Z,14.98
2022-11-10T03:46:11.870Z,16.35
2022-11-10T03:48:38.880Z,14.85
2022-11-10T03:51:05.175Z,15.18
2022-11-10T03:53:31.532Z,15.45
2022-11-10T03:55:57.922Z,13.98
2022-11-10T03:58:24.438Z,13.45
2022-11-10T04:00:50.754Z,13.80
2022-11-10T04:03:17.256Z,14.95
2022-11-10T04:05:43.607Z,14.10
2022-11-10T04:08:10.239Z,14.30
2022-11-10T04:10:36.616Z,13.43
2022-11-10T04:13:02.995Z,13.95
2022-11-10T04:15:29.339Z,13.80
2022-11-10T04:17:55.728Z,13.10
2022-11-10T04:20:22.258Z,13.85
2022-11-10T04:22:48.580Z,13.32
2022-11-10T04:25:15.071Z,13.57
2022-11-10T04:27:41.585Z,12.88
2022-11-10T04:30:08.018Z,14.48
2022-11-10T04:32:34.670Z,13.38
2022-11-10T04:35:01.019Z,12.80
2022-11-10T04:37:27.399Z,12.55
2022-11-10T04:39:53.779Z,12.35
2022-11-10T04:42:20.130Z,12.40
2022-11-10T04:44:46.498Z,12.80
2022-11-10T04:47:12.862Z,12.52
2022-11-10T04:49:39.334Z,12.48
2022-11-10T04:52:05.665Z,13.82
2022-11-10T04:54:32.236Z,12.60
2022-11-10T04:56:58.642Z,12.77
2022-11-10T04:59:25.096Z,11.45
2022-11-10T05:01:51.493Z,12.27
2022-11-10T05:04:17.937Z,12.25
2022-11-10T05:06:44.354Z,11.43
2022-11-10T05:09:10.774Z,11.50
2022-11-10T05:11:37.257Z,12.20
2022-11-10T05:14:03.667Z,10.90
2022-11-10T05:16:30.097Z,11.80
2022-11-10T05:18:56.453Z,12.38
2022-11-10T05:21:22.773Z,12.35
2022-11-10T05:23:49.161Z,11.55
2022-11-10T05:26:15.496Z,10.85
2022-11-10T05:28:41.832Z,10.80
2022-11-10T05:31:08.216Z,12.38
2022-11-10T05:33:34.615Z,11.52
2022-11-10T05:36:00.980Z,11.50
2022-11-10T05:38:27.364Z,11.35
2022-11-10T05:40:53.790Z,10.07
2022-11-10T05:43:20.456Z,11.05
2022-11-10T05:45:46.986Z,10.48
2022-11-10T05:48:13.357Z,11.32
2022-11-10T05:50:39.847Z,9.63
2022-11-10T05:53:06.386Z,11.07
2022-11-10T05:55:32.872Z,10.90
2022-11-10T05:57:59.430Z,10.15
2022-11-10T06:00:25.848Z,10.65
2022-11-10T06:02:52.163Z,9.75
2022-11-10T06:05:18.725Z,11.38
2022-11-10T06:07:45.265Z,10.88
2022-11-10T06:10:11.675Z,9.73
2022-11-10T06:12:38.279Z,11.15
2022-11-10T06:15:04.946Z,8.80
2022-11-10T06:17:31.479Z,10.18
2022-11-10T06:19:57.997Z,9.05
2022-11-10T06:22:24.504Z,10.18
2022-11-10T06:24:50.997Z,9.70
2022-11-10T06:27:19.385Z,10.15
2022-11-10T06:29:45.759Z,10.23
2022-11-10T06:32:12.247Z,8.98
2022-11-10T06:34:38.675Z,8.90
2022-11-10T06:37:05.413Z,12.68
2022-11-10T06:39:31.835Z,8.65
2022-11-10T06:41:58.440Z,9.07
2022-11-10T06:44:24.849Z,9.20
2022-11-10T06:46:51.259Z,8.70
2022-11-10T06:49:17.904Z,8.90
2022-11-10T06:51:44.544Z,9.10
2022-11-10T06:54:11.063Z,8.77
2022-11-10T06:56:37.553Z,7.90
2022-11-10T06:59:03.938Z,8.68
2022-11-10T07:01:30.361Z,8.95
2022-11-10T07:04:18.193Z,8.85
2022-11-10T07:06:43.550Z,9.15
2022-11-10T07:09:10.039Z,9.30
2022-11-10T07:11:36.653Z,9.38
2022-11-10T07:14:03.183Z,9.98
2022-11-10T07:16:29.609Z,7.97
2022-11-10T07:18:56.264Z,8.88
2022-11-10T07:21:22.759Z,9.05
2022-11-10T07:23:49.188Z,8.68
2022-11-10T07:26:15.765Z,7.75
2022-11-10T07:28:42.304Z,7.97
2022-11-10T07:31:09.052Z,8.75
2022-11-10T07:33:35.569Z,8.27
2022-11-10T07:36:01.977Z,7.47
2022-11-10T07:38:28.698Z,8.20
2022-11-10T07:40:55.357Z,7.45
2022-11-10T07:45:52.404Z,10.27
2022-11-10T07:48:18.810Z,6.72
2022-11-10T07:50:45.316Z,7.03
2022-11-10T07:53:11.657Z,8.38
2022-11-10T07:55:38.035Z,7.18
2022-11-10T07:58:08.121Z,7.45
2022-11-10T08:00:34.690Z,6.93
2022-11-10T08:03:01.139Z,8.23
2022-11-10T08:05:27.679Z,7.95
2022-11-10T08:07:54.153Z,9.48
2022-11-10T08:10:20.645Z,8.32
2022-11-10T08:12:47.145Z,7.60
2022-11-10T08:15:13.803Z,8.02
2022-11-10T08:17:40.445Z,12.45
2022-11-10T08:20:06.813Z,11.23
2022-11-10T08:22:33.528Z,7.38
2022-11-10T08:25:00.047Z,8.63
2022-11-10T08:27:26.464Z,11.82
2022-11-10T08:29:52.983Z,11.23
2022-11-10T08:32:19.407Z,12.38
2022-11-10T08:34:45.922Z,8.95
2022-11-10T08:37:12.307Z,9.32
2022-11-10T08:39:39.703Z,11.10
2022-11-10T08:42:06.313Z,8.38
2022-11-10T08:44:32.674Z,9.93
2022-11-10T08:46:59.046Z,10.27
2022-11-10T08:49:25.583Z,12.30
2022-11-10T08:51:51.991Z,11.40
2022-11-10T08:54:18.529Z,10.23
2022-11-10T08:56:44.921Z,13.93
2022-11-10T08:59:12.605Z,15.13
2022-11-10T09:01:39.003Z,11.52
2022-11-10T09:04:05.675Z,13.20
2022-11-10T09:06:32.221Z,13.88
2022-11-10T09:08:58.699Z,13.35
2022-11-10T09:11:25.113Z,14.60
2022-11-10T09:13:51.624Z,14.27
2022-11-10T09:16:17.960Z,14.35
2022-11-10T09:18:44.317Z,14.77
2022-11-10T09:21:10.884Z,16.05
2022-11-10T09:23:37.432Z,17.08
2022-11-10T09:26:03.831Z,14.13
2022-11-10T09:28:30.198Z,17.15
2022-11-10T09:30:56.832Z,19.48
2022-11-10T09:33:24.368Z,22.02
2022-11-10T09:35:51.210Z,22.63
2022-11-10T09:38:18.195Z,14.80
2022-11-10T09:40:44.559Z,20.40
2022-11-10T09:43:10.967Z,25.70
2022-11-10T09:45:39.359Z,23.17
2022-11-10T09:48:06.302Z,20.17
2022-11-10T09:50:32.756Z,23.10
2022-11-10T09:52:59.256Z,20.85
2022-11-10T09:55:25.671Z,21.23
2022-11-10T09:57:52.276Z,20.65
2022-11-10T10:00:18.872Z,21.25
2022-11-10T10:02:45.281Z,27.20
2022-11-10T10:05:11.712Z,22.58
2022-11-10T10:07:38.490Z,22.70
2022-11-10T10:10:05.028Z,33.95
2022-11-10T10:12:31.397Z,32.78
2022-11-10T10:14:57.858Z,41.97
2022-11-10T10:17:26.929Z,43.35
2022-11-10T10:19:53.791Z,43.85
2022-11-10T10:22:20.097Z,43.22
2022-11-10T10:24:46.620Z,48.20
2022-11-10T10:27:13.284Z,51.97
2022-11-10T10:29:39.846Z,45.92
2022-11-10T10:32:06.162Z,51.55
2022-11-10T10:34:32.755Z,49.17
2022-11-10T10:36:59.082Z,44.88
2022-11-10T10:39:25.427Z,49.38
2022-11-10T10:41:51.790Z,62.10
2022-11-10T10:44:18.195Z,59.75
2022-11-10T10:46:44.666Z,45.30
2022-11-10T10:51:57.586Z,50.15
2022-11-10T10:54:24.092Z,53.60
2022-11-10T10:56:50.489Z,50.55
2022-11-10T10:59:18.274Z,56.28
2022-11-10T11:01:44.724Z,54.00
2022-11-10T11:04:11.127Z,47.88
2022-11-10T11:06:37.539Z,44.00
2022-11-10T11:09:04.257Z,51.40
2022-11-10T11:11:30.853Z,54.15
2022-11-10T11:13:57.229Z,48.30
2022-11-10T11:16:23.642Z,55.00
2022-11-10T11:18:50.148Z,56.50
2022-11-10T11:21:16.502Z,62.92
2022-11-10T11:23:42.947Z,58.78
2022-11-10T11:26:09.400Z,61.58
2022-11-10T11:28:35.859Z,55.40
2022-11-10T11:31:02.522Z,61.45
2022-11-10T11:33:30.138Z,64.90
2022-11-10T11:35:57.595Z,64.70
2022-11-10T11:38:24.526Z,67.68
2022-11-10T11:40:51.309Z,68.70
2022-11-10T11:43:17.748Z,67.63
2022-11-10T11:45:44.191Z,72.22
2022-11-10T11:48:10.728Z,72.70
2022-11-10T11:50:37.478Z,69.68
2022-11-10T11:53:03.984Z,71.40
2022-11-10T11:55:30.363Z,66.70
2022-11-10T11:57:56.799Z,62.15
2022-11-10T12:00:25.485Z,62.58
2022-11-10T12:02:53.310Z,61.28
2022-11-10T12:05:20.101Z,62.72
2022-11-10T12:07:46.472Z,61.05
2022-11-10T12:10:12.899Z,62.55
2022-11-10T12:12:39.246Z,61.65
2022-11-10T12:15:05.657Z,60.67
2022-11-10T12:17:32.077Z,55.00
2022-11-10T12:19:58.650Z,60.72
2022-11-10T12:22:25.114Z,56.28
2022-11-10T12:24:51.458Z,57.58
2022-11-10T12:27:17.875Z,58.35
2022-11-10T12:29:44.680Z,53.40
2022-11-10T12:32:11.791Z,57.00
2022-11-10T12:34:38.199Z,53.60
2022-11-10T12:37:04.624Z,54.38
2022-11-10T12:39:31.163Z,56.33
2022-11-10T12:41:57.826Z,50.88
2022-11-10T12:44:24.285Z,53.75
2022-11-10T12:46:52.169Z,54.97
2022-11-10T12:49:18.648Z,54.92
2022-11-10T12:51:45.172Z,51.90
2022-11-10T12:54:16.477Z,47.67
2022-11-10T12:56:43.572Z,55.00
2022-11-10T12:59:10.009Z,48.33
2022-11-10T13:01:36.730Z,46.78
2022-11-10T13:04:03.327Z,46.67
2022-11-10T13:06:29.689Z,46.97
2022-11-10T13:08:56.167Z,48.80
2022-11-10T13:11:22.777Z,48.20
2022-11-10T13:13:49.162Z,47.17
2022-11-10T13:16:15.619Z,47.22
2022-11-10T13:18:42.123Z,48.30
2022-11-10T13:21:08.568Z,45.22
2022-11-10T13:23:34.893Z,43.33
2022-11-10T13:26:01.348Z,47.45
2022-11-10T13:28:27.780Z,42.17
2022-11-10T13:30:54.486Z,42.22
2022-11-10T13:33:20.907Z,43.08
2022-11-10T13:35:50.017Z,41.50
2022-11-10T13:38:20.447Z,42.17
2022-11-10T13:40:47.039Z,45.25
2022-11-10T13:43:13.455Z,43.72
2022-11-10T13:45:39.995Z,42.97
2022-11-10T13:48:06.405Z,43.65
2022-11-10T13:50:32.922Z,44.80
2022-11-10T13:52:59.487Z,46.38
2022-11-10T13:55:25.996Z,43.22
2022-11-10T13:57:52.383Z,40.30
2022-11-10T14:00:18.799Z,39.67
2022-11-10T14:02:45.342Z,39.78
2022-11-10T14:05:11.791Z,36.35
2022-11-10T14:07:38.197Z,39.10
2022-11-10T14:10:04.729Z,36.17
2022-11-10T14:12:31.058Z,39.28
2022-11-10T14:14:57.849Z,37.22
2022-11-10T14:17:24.378Z,34.92
2022-11-10T14:19:50.840Z,34.28
2022-11-10T14:22:17.220Z,33.10
2022-11-10T14:24:44.031Z,33.53
2022-11-10T14:29:54.643Z,36.28
2022-11-10T14:32:21.180Z,32.45
2022-11-10T14:34:48.359Z,31.55
2022-11-10T14:37:14.933Z,34.30
2022-11-10T14:39:41.400Z,35.97
2022-11-10T14:42:07.784Z,29.70
2022-11-10T14:44:34.286Z,31.85
2022-11-10T14:47:00.604Z,32.25
2022-11-10T14:49:27.342Z,34.85
2022-11-10T14:51:53.856Z,30.83
2022-11-10T14:54:20.247Z,35.63
2022-11-10T14:56:47.071Z,32.38
2022-11-10T14:59:13.594Z,31.92
2022-11-10T15:01:39.929Z,29.38
2022-11-10T15:04:06.428Z,30.42
2022-11-10T15:06:33.163Z,28.83
2022-11-10T15:09:00.041Z,32.40
2022-11-10T15:11:26.661Z,29.75
2022-11-10T15:13:53.042Z,32.08
2022-11-10T15:16:19.988Z,27.92
2022-11-10T15:18:46.599Z,27.17
2022-11-10T15:21:13.132Z,31.15
2022-11-10T15:23:39.733Z,33.03
2022-11-10T15:26:06.204Z,29.08
2022-11-10T15:28:33.757Z,44.80
2022-11-10T15:31:00.142Z,37.42
2022-11-10T15:33:26.551Z,40.42
2022-11-10T15:35:52.860Z,40.72
2022-11-10T15:38:21.197Z,40.67
2022-11-10T15:40:47.974Z,38.58
2022-11-10T15:43:14.380Z,38.83
2022-11-10T15:45:40.901Z,38.22
2022-11-10T15:48:07.261Z,38.38
2022-11-10T15:50:33.757Z,38.17
2022-11-10T15:53:00.103Z,39.17
2022-11-10T15:55:26.415Z,40.63
2022-11-10T15:57:53.000Z,39.38
2022-11-10T16:00:19.335Z,37.53
2022-11-10T16:02:46.276Z,40.72
2022-11-10T16:05:12.629Z,39.70
2022-11-10T16:07:39.297Z,38.55
2022-11-10T16:10:05.662Z,39.45
2022-11-10T16:12:32.004Z,38.53
2022-11-10T16:14:58.438Z,38.42
2022-11-10T16:17:24.861Z,37.10
2022-11-10T16:19:51.482Z,36.13
2022-11-10T16:22:17.870Z,37.28
2022-11-10T16:24:44.820Z,37.60
2022-11-10T16:27:13.369Z,38.55
2022-11-10T16:29:42.167Z,36.55
2022-11-10T16:32:08.561Z,38.60
2022-11-10T16:34:35.035Z,36.38
2022-11-10T16:37:01.580Z,38.90
2022-11-10T16:39:28.004Z,39.60
2022-11-10T16:41:54.522Z,37.67
2022-11-10T16:44:23.717Z,38.13
2022-11-10T16:46:51.586Z,43.40
2022-11-10T16:49:17.956Z,39.03
2022-11-10T16:51:48.619Z,39.55
2022-11-10T16:54:15.527Z,41.33
2022-11-10T16:56:41.809Z,39.60
2022-11-10T16:59:08.610Z,37.42
2022-11-10T17:01:35.059Z,36.50
2022-11-10T17:04:01.641Z,35.58
2022-11-10T17:06:28.197Z,37.30
2022-11-10T17:08:54.707Z,37.42
2022-11-10T17:11:21.256Z,38.47
2022-11-10T17:13:47.609Z,36.30
2022-11-10T17:16:13.954Z,38.22
2022-11-10T17:18:40.373Z,38.20
2022-11-10T17:21:06.859Z,35.92
2022-11-10T17:23:33.234Z,36.60
2022-11-10T17:25:59.735Z,37.60
2022-11-10T17:28:26.136Z,39.28
2022-11-10T17:30:52.436Z,36.67
2022-11-10T17:33:18.810Z,39.70
2022-11-10T17:35:45.219Z,37.63
2022-11-10T17:38:12.623Z,36.25
2022-11-10T17:40:39.200Z,36.08
2022-11-10T17:43:06.345Z,44.53
2022-11-10T17:45:32.966Z,67.10
2022-11-10T17:47:59.508Z,82.07
2022-11-10T17:50:25.946Z,83.70
2022-11-10T17:52:52.386Z,91.45
2022-11-10T17:55:18.947Z,107.95
2022-11-10T17:57:45.350Z,145.30
2022-11-10T18:00:11.718Z,195.68
2022-11-10T18:02:38.119Z,232.93
2022-11-10T18:05:08.635Z,262.85
2022-11-10T18:10:01.432Z,243.23
2022-11-10T18:12:28.225Z,225.60
2022-11-10T18:15:00.621Z,221.45
2022-11-10T18:17:27.173Z,225.95
2022-11-10T18:19:53.952Z,217.32
2022-11-10T18:22:20.507Z,267.13
2022-11-10T18:24:46.988Z,334.73
2022-11-10T18:27:13.420Z,330.48
2022-11-10T18:29:39.953Z,328.88
2022-11-10T18:32:06.575Z,310.30
2022-11-10T18:34:32.954Z,306.40
2022-11-10T18:36:59.411Z,305.70
2022-11-10T18:39:26.554Z,294.70
2022-11-10T18:41:53.041Z,281.52
2022-11-10T18:44:19.708Z,278.20
2022-11-10T18:46:46.191Z,271.48
2022-11-10T18:49:12.865Z,282.83
2022-11-10T18:51:39.434Z,346.38
2022-11-10T18:54:05.839Z,395.27
2022-11-10T18:56:32.199Z,403.83
2022-11-10T18:58:58.930Z,396.23
2022-11-10T19:01:25.417Z,382.60
2022-11-10T19:03:51.857Z,377.50
2022-11-10T19:06:18.242Z,366.58
2022-11-10T19:08:44.654Z,364.63
2022-11-10T19:13:55.535Z,345.55
2022-11-10T19:16:22.068Z,335.80
2022-11-10T19:18:48.623Z,323.85
2022-11-10T19:21:15.211Z,319.48
2022-11-10T19:23:41.686Z,318.33
2022-11-10T19:26:08.089Z,313.60
2022-11-10T19:28:34.538Z,314.17
2022-11-10T19:31:01.237Z,306.42
2022-11-10T19:33:27.790Z,294.15
2022-11-10T19:35:54.197Z,292.95
2022-11-10T19:38:20.654Z,286.92
2022-11-10T19:40:47.022Z,285.17
2022-11-10T19:43:13.461Z,273.33
2022-11-10T19:45:40.028Z,270.58
2022-11-10T19:48:07.100Z,264.90
2022-11-10T19:50:33.690Z,258.42
2022-11-10T19:53:00.557Z,264.40
2022-11-10T19:55:26.938Z,359.40
2022-11-10T19:57:53.487Z,394.77
2022-11-10T20:00:20.132Z,392.77
2022-11-10T20:02:46.577Z,382.63
2022-11-10T20:05:12.913Z,378.75
2022-11-10T20:07:39.372Z,375.10
2022-11-10T20:10:05.807Z,361.73
2022-11-10T20:12:32.318Z,361.77
2022-11-10T20:14:59.046Z,352.08
2022-11-10T20:17:25.522Z,358.85
2022-11-10T20:19:52.147Z,357.70
2022-11-10T20:22:18.635Z,357.67
2022-11-10T20:24:51.397Z,348.90
2022-11-10T20:27:17.769Z,344.33
2022-11-10T20:29:44.111Z,341.05
2022-11-10T20:32:10.483Z,324.70
2022-11-10T20:34:36.870Z,327.88
2022-11-10T20:37:03.296Z,320.95
2022-11-10T20:39:29.584Z,306.63
2022-11-10T20:41:55.931Z,302.98
2022-11-10T20:44:22.345Z,299.55
2022-11-10T20:46:54.651Z,293.52
2022-11-10T20:49:22.413Z,281.60
2022-11-10T20:51:49.795Z,267.67
2022-11-10T20:54:16.146Z,257.95
2022-11-10T20:56:42.525Z,255.80
2022-11-10T20:59:09.783Z,257.35
2022-11-10T21:01:36.127Z,245.40
2022-11-10T21:04:02.542Z,239.10
2022-11-10T21:06:29.059Z,242.95
2022-11-10T21:08:55.682Z,229.73
2022-11-10T21:11:22.222Z,228.60
2022-11-10T21:13:48.834Z,227.77
2022-11-10T21:16:15.130Z,217.18
2022-11-10T21:18:41.525Z,212.18
2022-11-10T21:21:07.903Z,252.07
2022-11-10T21:23:34.559Z,312.58
2022-11-10T21:26:00.893Z,308.40
2022-11-10T21:28:27.244Z,302.20
2022-11-10T21:30:53.886Z,301.27
2022-11-10T21:33:20.794Z,293.65
2022-11-10T21:35:47.643Z,294.02
2022-11-10T21:38:14.989Z,277.10
2022-11-10T21:40:41.303Z,240.23
2022-11-10T21:43:08.126Z,236.77
2022-11-10T21:45:34.447Z,234.18
2022-11-10T21:48:00.879Z,237.52
2022-11-10T21:50:29.307Z,232.32
2022-11-10T21:52:55.698Z,226.73
2022-11-10T21:55:22.114Z,219.27
2022-11-10T21:57:48.511Z,215.05
2022-11-10T22:00:14.913Z,216.13
2022-11-10T22:02:41.394Z,205.10
2022-11-10T22:05:07.818Z,206.50
2022-11-10T22:07:34.412Z,199.95
2022-11-10T22:10:00.691Z,193.25
2022-11-10T22:12:27.207Z,186.02
2022-11-10T22:14:56.255Z,187.60
2022-11-10T22:17:22.718Z,179.52
2022-11-10T22:19:49.084Z,159.82
2022-11-10T22:22:15.392Z,156.85
2022-11-10T22:24:41.687Z,155.85
2022-11-10T22:27:07.999Z,151.35
2022-11-10T22:29:34.273Z,227.35
2022-11-10T22:32:00.764Z,304.42
2022-11-10T22:34:27.191Z,293.13
2022-11-10T22:36:53.681Z,294.90
2022-11-10T22:39:20.156Z,332.27
2022-11-10T22:41:46.688Z,429.25
2022-11-10T22:46:54.388Z,424.40
2022-11-10T22:49:20.701Z,418.15
2022-11-10T22:51:47.061Z,413.38
2022-11-10T22:54:13.543Z,402.58
2022-11-10T22:56:41.313Z,389.67
2022-11-10T22:59:07.730Z,391.33
2022-11-10T23:01:34.193Z,380.08
2022-11-10T23:04:00.695Z,380.50
2022-11-10T23:06:27.286Z,406.35
2022-11-10T23:08:54.061Z,672.00
2022-11-10T23:11:20.538Z,641.63
2022-11-10T23:13:51.871Z,614.17
2022-11-10T23:16:20.166Z,628.75
2022-11-10T23:18:46.589Z,661.97
2022-11-10T23:21:12.891Z,630.33
2022-11-10T23:23:39.208Z,631.38
2022-11-10T23:26:05.604Z,626.95
2022-11-10T23:28:31.899Z,615.08
2022-11-10T23:30:58.246Z,605.80
2022-11-10T23:33:28.675Z,606.08
2022-11-10T23:35:57.745Z,607.33
2022-11-10T23:38:24.212Z,599.13
2022-11-10T23:40:50.572Z,592.70
2022-11-10T23:43:17.005Z,579.75
2022-11-10T23:46:05.962Z,573.95
2022-11-10T23:48:29.871Z,561.92
2022-11-10T23:50:56.208Z,569.33
2022-11-10T23:53:22.979Z,559.97
2022-11-10T23:55:50.714Z,548.65
2022-11-10T23:58:17.084Z,543.33
